sensor_id;sensor_type;location;lat;lon;timestamp;pressure;altitude;pressure_sealevel;temperature;humidity
71795;BME280;59641;45.188;5.712;2023-02-28T00:02:16;99409.50;;;8.24;41.28
71795;BME280;59641;45.188;5.712;2023-02-28T00:04:42;99420.41;;;8.16;41.48
71795;BME280;59641;45.188;5.712;2023-02-28T00:07:08;99417.50;;;8.04;41.60
71795;BME280;59641;45.188;5.712;2023-02-28T00:09:33;99415.22;;;7.95;41.59
71795;BME280;59641;45.188;5.712;2023-02-28T00:11:59;99424.63;;;7.84;41.63
71795;BME280;59641;45.188;5.712;2023-02-28T00:14:24;99423.56;;;7.72;41.95
71795;BME280;59641;45.188;5.712;2023-02-28T00:16:50;99422.91;;;7.63;42.01
71795;BME280;59641;45.188;5.712;2023-02-28T00:19:15;99422.88;;;7.56;42.18
71795;BME280;59641;45.188;5.712;2023-02-28T00:21:40;99423.06;;;7.55;42.29
71795;BME280;59641;45.188;5.712;2023-02-28T00:24:06;99416.91;;;7.54;42.26
71795;BME280;59641;45.188;5.712;2023-02-28T00:26:32;99420.81;;;7.52;42.35
71795;BME280;59641;45.188;5.712;2023-02-28T00:28:57;99417.09;;;7.53;42.47
71795;BME280;59641;45.188;5.712;2023-02-28T00:31:22;99413.19;;;7.49;42.53
71795;BME280;59641;45.188;5.712;2023-02-28T00:33:48;99415.19;;;7.40;42.77
71795;BME280;59641;45.188;5.712;2023-02-28T00:36:13;99415.19;;;7.40;42.62
71795;BME280;59641;45.188;5.712;2023-02-28T00:38:39;99422.00;;;7.42;42.54
71795;BME280;59641;45.188;5.712;2023-02-28T00:41:06;99421.13;;;7.35;42.63
71795;BME280;59641;45.188;5.712;2023-02-28T00:43:36;99417.81;;;7.27;42.89
71795;BME280;59641;45.188;5.712;2023-02-28T00:46:02;99421.09;;;7.29;43.12
71795;BME280;59641;45.188;5.712;2023-02-28T00:48:28;99410.03;;;7.32;43.00
71795;BME280;59641;45.188;5.712;2023-02-28T00:50:53;99415.16;;;7.33;43.03
71795;BME280;59641;45.188;5.712;2023-02-28T00:53:19;99410.44;;;7.35;43.23
71795;BME280;59641;45.188;5.712;2023-02-28T00:55:44;99413.75;;;7.37;43.24
71795;BME280;59641;45.188;5.712;2023-02-28T00:58:09;99416.03;;;7.40;43.02
71795;BME280;59641;45.188;5.712;2023-02-28T01:00:35;99421.16;;;7.42;43.31
71795;BME280;59641;45.188;5.712;2023-02-28T01:03:00;99409.28;;;7.44;43.27
71795;BME280;59641;45.188;5.712;2023-02-28T01:05:26;99409.72;;;7.48;43.32
71795;BME280;59641;45.188;5.712;2023-02-28T01:07:51;99418.13;;;7.52;43.19
71795;BME280;59641;45.188;5.712;2023-02-28T01:10:16;99416.28;;;7.52;43.34
71795;BME280;59641;45.188;5.712;2023-02-28T01:12:42;99412.78;;;7.52;43.14
71795;BME280;59641;45.188;5.712;2023-02-28T01:15:10;99416.28;;;7.52;43.19
71795;BME280;59641;45.188;5.712;2023-02-28T01:17:36;99423.91;;;7.55;43.10
71795;BME280;59641;45.188;5.712;2023-02-28T01:20:01;99424.28;;;7.52;43.22
71795;BME280;59641;45.188;5.712;2023-02-28T01:22:28;99425.72;;;7.48;43.43
71795;BME280;59641;45.188;5.712;2023-02-28T01:24:53;99422.44;;;7.46;43.44
71795;BME280;59641;45.188;5.712;2023-02-28T01:27:19;99416.50;;;7.51;43.51
71795;BME280;59641;45.188;5.712;2023-02-28T01:29:45;99421.63;;;7.52;43.56
71795;BME280;59641;45.188;5.712;2023-02-28T01:32:10;99409.31;;;7.51;43.42
71795;BME280;59641;45.188;5.712;2023-02-28T01:34:36;99420.19;;;7.50;43.40
71795;BME280;59641;45.188;5.712;2023-02-28T01:37:01;99415.06;;;7.48;43.56
71795;BME280;59641;45.188;5.712;2023-02-28T01:39:26;99409.91;;;7.46;43.72
71795;BME280;59641;45.188;5.712;2023-02-28T01:41:52;99417.72;;;7.48;43.76
71795;BME280;59641;45.188;5.712;2023-02-28T01:44:55;99422.84;;;7.50;43.69
71795;BME280;59641;45.188;5.712;2023-02-28T01:47:23;99415.88;;;7.49;43.68
71795;BME280;59641;45.188;5.712;2023-02-28T01:49:51;99422.81;;;7.43;43.57
71795;BME280;59641;45.188;5.712;2023-02-28T01:52:17;99421.34;;;7.40;43.72
71795;BME280;59641;45.188;5.712;2023-02-28T01:54:47;99424.25;;;7.39;43.92
71795;BME280;59641;45.188;5.712;2023-02-28T01:57:18;99419.09;;;7.37;44.06
71795;BME280;59641;45.188;5.712;2023-02-28T01:59:50;99418.28;;;7.37;43.85
71795;BME280;59641;45.188;5.712;2023-02-28T02:02:19;99418.28;;;7.37;43.98
71795;BME280;59641;45.188;5.712;2023-02-28T02:04:51;99414.78;;;7.36;44.13
71795;BME280;59641;45.188;5.712;2023-02-28T02:07:18;99416.25;;;7.39;44.05
71795;BME280;59641;45.188;5.712;2023-02-28T02:09:44;99416.41;;;7.37;44.18
71795;BME280;59641;45.188;5.712;2023-02-28T02:12:25;99415.59;;;7.37;44.17
71795;BME280;59641;45.188;5.712;2023-02-28T02:17:42;99419.09;;;7.37;44.24
71795;BME280;59641;45.188;5.712;2023-02-28T02:28:55;99413.56;;;7.39;44.38
71795;BME280;59641;45.188;5.712;2023-02-28T02:31:52;99417.88;;;7.40;44.38
71795;BME280;59641;45.188;5.712;2023-02-28T02:42:27;99408.97;;;7.26;44.49
71795;BME280;59641;45.188;5.712;2023-02-28T02:45:01;99404.66;;;7.25;44.37
71795;BME280;59641;45.188;5.712;2023-02-28T02:47:30;99409.19;;;7.24;44.57
71795;BME280;59641;45.188;5.712;2023-02-28T02:49:59;99408.97;;;7.26;44.64
71795;BME280;59641;45.188;5.712;2023-02-28T02:52:34;99415.97;;;7.27;44.61
71795;BME280;59641;45.188;5.712;2023-02-28T02:55:03;99408.78;;;7.28;44.79
71795;BME280;59641;45.188;5.712;2023-02-28T02:57:36;99401.59;;;7.28;44.85
71795;BME280;59641;45.188;5.712;2023-02-28T03:00:05;99399.34;;;7.32;44.75
71795;BME280;59641;45.188;5.712;2023-02-28T03:02:35;99403.66;;;7.33;44.77
71795;BME280;59641;45.188;5.712;2023-02-28T03:05:12;99397.31;;;7.34;44.76
71795;BME280;59641;45.188;5.712;2023-02-28T03:07:39;99399.78;;;7.35;44.43
71795;BME280;59641;45.188;5.712;2023-02-28T03:18:57;99406.94;;;7.28;44.80
71795;BME280;59641;45.188;5.712;2023-02-28T03:24:08;99404.66;;;7.25;44.98
71795;BME280;59641;45.188;5.712;2023-02-28T03:26:39;99404.66;;;7.25;44.96
71795;BME280;59641;45.188;5.712;2023-02-28T03:29:16;99404.66;;;7.25;45.06
71795;BME280;59641;45.188;5.712;2023-02-28T03:31:58;99402.41;;;7.29;44.95
71795;BME280;59641;45.188;5.712;2023-02-28T03:34:33;99400.78;;;7.28;44.97
71795;BME280;59641;45.188;5.712;2023-02-28T03:37:04;99409.41;;;7.30;45.20
71795;BME280;59641;45.188;5.712;2023-02-28T03:39:41;99410.84;;;7.32;45.20
71795;BME280;59641;45.188;5.712;2023-02-28T03:42:12;99410.66;;;7.34;45.03
71795;BME280;59641;45.188;5.712;2023-02-28T03:44:43;99410.66;;;7.34;45.03
71795;BME280;59641;45.188;5.712;2023-02-28T03:47:14;99409.63;;;7.35;44.98
71795;BME280;59641;45.188;5.712;2023-02-28T03:50:15;99401.81;;;7.33;45.16
71795;BME280;59641;45.188;5.712;2023-02-28T03:52:47;99408.00;;;7.34;45.03
71795;BME280;59641;45.188;5.712;2023-02-28T03:55:16;99420.50;;;7.33;45.21
71795;BME280;59641;45.188;5.712;2023-02-28T04:00:38;99412.94;;;7.37;45.12
71795;BME280;59641;45.188;5.712;2023-02-28T04:03:05;99416.41;;;7.37;45.36
71795;BME280;59641;45.188;5.712;2023-02-28T04:05:31;99414.38;;;7.39;45.35
71795;BME280;59641;45.188;5.712;2023-02-28T04:08:05;99417.88;;;7.40;45.12
71795;BME280;59641;45.188;5.712;2023-02-28T04:10:30;99412.72;;;7.38;45.03
71795;BME280;59641;45.188;5.712;2023-02-28T04:12:56;99418.47;;;7.35;44.97
71795;BME280;59641;45.188;5.712;2023-02-28T04:15:21;99419.91;;;7.31;45.03
71795;BME280;59641;45.188;5.712;2023-02-28T04:17:48;99424.38;;;7.31;45.09
71795;BME280;59641;45.188;5.712;2023-02-28T04:20:13;99429.94;;;7.29;45.26
71795;BME280;59641;45.188;5.712;2023-02-28T04:22:38;99434.44;;;7.29;45.35
71795;BME280;59641;45.188;5.712;2023-02-28T04:25:05;99428.28;;;7.28;45.02
71795;BME280;59641;45.188;5.712;2023-02-28T04:27:30;99430.94;;;7.28;45.43
71795;BME280;59641;45.188;5.712;2023-02-28T04:29:56;99438.78;;;7.30;45.47
71795;BME280;59641;45.188;5.712;2023-02-28T04:32:21;99431.75;;;7.29;45.34
71795;BME280;59641;45.188;5.712;2023-02-28T04:34:46;99432.81;;;7.28;45.33
71795;BME280;59641;45.188;5.712;2023-02-28T04:37:12;99443.47;;;7.28;45.48
71795;BME280;59641;45.188;5.712;2023-02-28T04:39:37;99446.97;;;7.28;45.29
71795;BME280;59641;45.188;5.712;2023-02-28T04:42:03;99446.16;;;7.28;45.49
71795;BME280;59641;45.188;5.712;2023-02-28T04:44:29;99451.47;;;7.28;45.63
71795;BME280;59641;45.188;5.712;2023-02-28T04:46:54;99450.44;;;7.29;45.56
71795;BME280;59641;45.188;5.712;2023-02-28T04:49:19;99453.75;;;7.31;45.29
71795;BME280;59641;45.188;5.712;2023-02-28T04:51:45;99447.78;;;7.29;45.49
71795;BME280;59641;45.188;5.712;2023-02-28T04:54:10;99450.44;;;7.29;45.69
71795;BME280;59641;45.188;5.712;2023-02-28T04:56:35;99452.94;;;7.30;45.58
71795;BME280;59641;45.188;5.712;2023-02-28T04:59:01;99456.41;;;7.31;45.78
71795;BME280;59641;45.188;5.712;2023-02-28T05:01:28;99457.88;;;7.33;45.57
71795;BME280;59641;45.188;5.712;2023-02-28T05:03:57;99452.75;;;7.32;45.67
71795;BME280;59641;45.188;5.712;2023-02-28T05:06:25;99464.25;;;7.32;45.86
71795;BME280;59641;45.188;5.712;2023-02-28T05:08:51;99462.38;;;7.33;45.72
71795;BME280;59641;45.188;5.712;2023-02-28T05:11:20;99462.22;;;7.34;45.39
71795;BME280;59641;45.188;5.712;2023-02-28T05:13:47;99463.03;;;7.35;45.86
71795;BME280;59641;45.188;5.712;2023-02-28T05:16:13;99459.31;;;7.36;45.88
71795;BME280;59641;45.188;5.712;2023-02-28T05:18:38;99463.66;;;7.37;45.94
71795;BME280;59641;45.188;5.712;2023-02-28T05:21:04;99466.31;;;7.37;46.09
71795;BME280;59641;45.188;5.712;2023-02-28T05:23:30;99467.97;;;7.38;46.07
71795;BME280;59641;45.188;5.712;2023-02-28T05:25:55;99465.28;;;7.38;46.16
71795;BME280;59641;45.188;5.712;2023-02-28T05:28:21;99466.09;;;7.38;46.15
71795;BME280;59641;45.188;5.712;2023-02-28T05:30:47;99463.44;;;7.38;46.14
71795;BME280;59641;45.188;5.712;2023-02-28T05:33:12;99464.28;;;7.39;46.19
71795;BME280;59641;45.188;5.712;2023-02-28T05:35:40;99467.16;;;7.37;46.48
71795;BME280;59641;45.188;5.712;2023-02-28T05:38:05;99462.00;;;7.36;46.35
71795;BME280;59641;45.188;5.712;2023-02-28T05:40:31;99460.34;;;7.35;46.33
71795;BME280;59641;45.188;5.712;2023-02-28T05:42:56;99456.88;;;7.34;46.29
71795;BME280;59641;45.188;5.712;2023-02-28T05:45:22;99456.22;;;7.32;46.20
71795;BME280;59641;45.188;5.712;2023-02-28T05:47:47;99462.78;;;7.30;46.49
71795;BME280;59641;45.188;5.712;2023-02-28T05:50:12;99456.00;;;7.27;46.42
71795;BME280;59641;45.188;5.712;2023-02-28T05:52:38;99457.00;;;7.26;46.42
71795;BME280;59641;45.188;5.712;2023-02-28T05:55:04;99461.94;;;7.22;46.49
71795;BME280;59641;45.188;5.712;2023-02-28T05:57:29;99461.94;;;7.22;46.70
71795;BME280;59641;45.188;5.712;2023-02-28T05:59:55;99464.59;;;7.22;46.56
71795;BME280;59641;45.188;5.712;2023-02-28T06:02:20;99470.75;;;7.23;46.75
71795;BME280;59641;45.188;5.712;2023-02-28T06:04:46;99469.13;;;7.22;46.66
71795;BME280;59641;45.188;5.712;2023-02-28T06:07:11;99474.63;;;7.20;46.84
71795;BME280;59641;45.188;5.712;2023-02-28T06:09:37;99476.28;;;7.21;46.60
71795;BME280;59641;45.188;5.712;2023-02-28T06:12:05;99466.63;;;7.20;46.59
71795;BME280;59641;45.188;5.712;2023-02-28T06:14:33;99473.81;;;7.20;46.63
71795;BME280;59641;45.188;5.712;2023-02-28T06:16:59;99480.38;;;7.17;46.47
71795;BME280;59641;45.188;5.712;2023-02-28T06:19:25;99481.59;;;7.15;46.50
71795;BME280;59641;45.188;5.712;2023-02-28T06:21:51;99490.81;;;7.12;46.36
71795;BME280;59641;45.188;5.712;2023-02-28T06:24:21;99488.31;;;7.11;46.46
71795;BME280;59641;45.188;5.712;2023-02-28T06:26:47;99490.56;;;7.07;46.20
71795;BME280;59641;45.188;5.712;2023-02-28T06:29:12;99494.63;;;7.03;46.43
71795;BME280;59641;45.188;5.712;2023-02-28T06:31:42;99498.53;;;7.00;46.37
71795;BME280;59641;45.188;5.712;2023-02-28T06:34:09;99495.41;;;6.97;46.37
71795;BME280;59641;45.188;5.712;2023-02-28T06:36:37;99500.94;;;6.95;46.51
71795;BME280;59641;45.188;5.712;2023-02-28T06:39:02;99515.28;;;6.94;46.31
71795;BME280;59641;45.188;5.712;2023-02-28T06:41:27;99521.66;;;6.93;46.26
71795;BME280;59641;45.188;5.712;2023-02-28T06:43:53;99517.31;;;6.92;46.50
71795;BME280;59641;45.188;5.712;2023-02-28T06:46:19;99513.81;;;6.92;46.50
71795;BME280;59641;45.188;5.712;2023-02-28T06:48:45;99513.81;;;6.92;46.38
71795;BME280;59641;45.188;5.712;2023-02-28T06:51:15;99518.53;;;6.90;46.24
71795;BME280;59641;45.188;5.712;2023-02-28T06:53:41;99525.72;;;6.89;46.10
71795;BME280;59641;45.188;5.712;2023-02-28T06:56:10;99523.22;;;6.88;46.23
71795;BME280;59641;45.188;5.712;2023-02-28T06:58:36;99524.44;;;6.85;46.39
71795;BME280;59641;45.188;5.712;2023-02-28T07:01:03;99528.94;;;6.85;46.35
71795;BME280;59641;45.188;5.712;2023-02-28T07:03:29;99538.63;;;6.86;46.31
71795;BME280;59641;45.188;5.712;2023-02-28T07:05:54;99537.59;;;6.87;46.49
71795;BME280;59641;45.188;5.712;2023-02-28T07:08:22;99544.38;;;6.89;46.44
71795;BME280;59641;45.188;5.712;2023-02-28T07:10:51;99543.16;;;6.92;46.23
71795;BME280;59641;45.188;5.712;2023-02-28T07:13:17;99550.19;;;6.93;46.34
71795;BME280;59641;45.188;5.712;2023-02-28T07:15:42;99551.00;;;6.93;46.24
71795;BME280;59641;45.188;5.712;2023-02-28T07:18:07;99554.47;;;6.94;46.23
71795;BME280;59641;45.188;5.712;2023-02-28T07:20:33;99559.00;;;6.93;46.16
71795;BME280;59641;45.188;5.712;2023-02-28T07:22:58;99562.47;;;6.94;46.15
71795;BME280;59641;45.188;5.712;2023-02-28T07:25:25;99561.44;;;6.95;46.14
71795;BME280;59641;45.188;5.712;2023-02-28T07:27:51;99569.28;;;6.96;46.05
71795;BME280;59641;45.188;5.712;2023-02-28T07:30:17;99556.97;;;6.95;46.26
71795;BME280;59641;45.188;5.712;2023-02-28T07:32:42;99555.94;;;6.96;46.07
71795;BME280;59641;45.188;5.712;2023-02-28T07:35:08;99559.25;;;6.98;46.07
71795;BME280;59641;45.188;5.712;2023-02-28T07:37:33;99562.56;;;7.00;46.09
71795;BME280;59641;45.188;5.712;2023-02-28T07:40:03;99561.72;;;7.00;46.05
71795;BME280;59641;45.188;5.712;2023-02-28T07:42:31;99564.56;;;6.98;46.03
71795;BME280;59641;45.188;5.712;2023-02-28T07:44:56;99566.03;;;7.01;46.03
71795;BME280;59641;45.188;5.712;2023-02-28T07:47:22;99567.69;;;7.02;46.13
71795;BME280;59641;45.188;5.712;2023-02-28T07:49:47;99563.78;;;7.04;46.03
71795;BME280;59641;45.188;5.712;2023-02-28T07:52:12;99561.75;;;7.07;45.98
71795;BME280;59641;45.188;5.712;2023-02-28T07:54:38;99561.75;;;7.07;46.09
71795;BME280;59641;45.188;5.712;2023-02-28T07:57:03;99567.75;;;7.09;45.99
71795;BME280;59641;45.188;5.712;2023-02-28T07:59:28;99569.41;;;7.10;46.06
71795;BME280;59641;45.188;5.712;2023-02-28T08:01:54;99572.06;;;7.10;45.77
71795;BME280;59641;45.188;5.712;2023-02-28T08:04:19;99570.41;;;7.09;45.48
71795;BME280;59641;45.188;5.712;2023-02-28T08:06:45;99566.91;;;7.08;45.67
71795;BME280;59641;45.188;5.712;2023-02-28T08:09:11;99568.78;;;7.08;45.80
71795;BME280;59641;45.188;5.712;2023-02-28T08:11:36;99574.09;;;7.08;45.72
71795;BME280;59641;45.188;5.712;2023-02-28T08:14:02;99577.59;;;7.08;45.83
71795;BME280;59641;45.188;5.712;2023-02-28T08:16:27;99575.97;;;7.07;45.65
71795;BME280;59641;45.188;5.712;2023-02-28T08:18:52;99581.28;;;7.07;45.64
71795;BME280;59641;45.188;5.712;2023-02-28T08:21:19;99580.25;;;7.08;45.60
71795;BME280;59641;45.188;5.712;2023-02-28T08:23:48;99576.56;;;7.09;45.88
71795;BME280;59641;45.188;5.712;2023-02-28T08:26:15;99581.72;;;7.11;45.68
71795;BME280;59641;45.188;5.712;2023-02-28T08:28:41;99583.19;;;7.13;45.46
71795;BME280;59641;45.188;5.712;2023-02-28T08:31:11;99584.00;;;7.14;45.71
71795;BME280;59641;45.188;5.712;2023-02-28T08:33:37;99586.47;;;7.15;45.74
71795;BME280;59641;45.188;5.712;2023-02-28T08:36:04;99590.59;;;7.18;45.65
71795;BME280;59641;45.188;5.712;2023-02-28T08:38:30;99586.53;;;7.22;45.56
71795;BME280;59641;45.188;5.712;2023-02-28T08:41:00;99591.50;;;7.25;45.63
71795;BME280;59641;45.188;5.712;2023-02-28T08:43:26;99586.56;;;7.29;45.69
71795;BME280;59641;45.188;5.712;2023-02-28T08:45:52;99591.72;;;7.30;45.34
71795;BME280;59641;45.188;5.712;2023-02-28T08:48:18;99581.88;;;7.31;45.38
71795;BME280;59641;45.188;5.712;2023-02-28T08:50:43;99579.03;;;7.32;45.38
71795;BME280;59641;45.188;5.712;2023-02-28T08:53:09;99581.50;;;7.34;45.37
71795;BME280;59641;45.188;5.712;2023-02-28T08:55:34;99593.00;;;7.34;45.46
71795;BME280;59641;45.188;5.712;2023-02-28T08:57:59;99585.63;;;7.36;45.27
71795;BME280;59641;45.188;5.712;2023-02-28T09:00:26;99589.75;;;7.39;45.37
71795;BME280;59641;45.188;5.712;2023-02-28T09:02:51;99587.50;;;7.42;45.26
71795;BME280;59641;45.188;5.712;2023-02-28T09:05:17;99585.47;;;7.44;45.28
71795;BME280;59641;45.188;5.712;2023-02-28T09:07:42;99590.63;;;7.46;45.35
71795;BME280;59641;45.188;5.712;2023-02-28T09:10:08;99591.28;;;7.48;45.24
71795;BME280;59641;45.188;5.712;2023-02-28T09:12:34;99593.56;;;7.51;44.98
71795;BME280;59641;45.188;5.712;2023-02-28T09:15:00;99592.34;;;7.54;45.32
71795;BME280;59641;45.188;5.712;2023-02-28T09:17:26;99598.94;;;7.58;45.34
71795;BME280;59641;45.188;5.712;2023-02-28T09:19:51;99591.53;;;7.60;45.20
71795;BME280;59641;45.188;5.712;2023-02-28T09:22:16;99590.31;;;7.62;45.11
71795;BME280;59641;45.188;5.712;2023-02-28T09:24:42;99598.78;;;7.66;45.24
71795;BME280;59641;45.188;5.712;2023-02-28T09:27:07;99595.06;;;7.67;45.16
71795;BME280;59641;45.188;5.712;2023-02-28T09:29:33;99605.56;;;7.68;45.15
71795;BME280;59641;45.188;5.712;2023-02-28T09:31:59;99594.31;;;7.73;45.08
71795;BME280;59641;45.188;5.712;2023-02-28T09:34:26;99597.41;;;7.77;45.22
71795;BME280;59641;45.188;5.712;2023-02-28T09:36:51;99590.47;;;7.82;45.36
71795;BME280;59641;45.188;5.712;2023-02-28T09:39:21;99592.75;;;7.85;45.17
71795;BME280;59641;45.188;5.712;2023-02-28T09:41:50;99599.34;;;7.89;44.96
71795;BME280;59641;45.188;5.712;2023-02-28T09:44:37;99600.81;;;7.92;44.92
71795;BME280;59641;45.188;5.712;2023-02-28T09:49:40;99603.06;;;7.95;44.95
71795;BME280;59641;45.188;5.712;2023-02-28T09:52:12;99605.75;;;7.95;44.79
71795;BME280;59641;45.188;5.712;2023-02-28T09:54:38;99603.88;;;7.96;44.93
71795;BME280;59641;45.188;5.712;2023-02-28T10:02:24;99604.13;;;8.01;44.71
71795;BME280;59641;45.188;5.712;2023-02-28T10:05:12;99610.09;;;8.03;44.71
71795;BME280;59641;45.188;5.712;2023-02-28T10:10:45;99604.56;;;8.04;44.53
71795;BME280;59641;45.188;5.712;2023-02-28T10:13:21;99607.06;;;8.06;44.47
71795;BME280;59641;45.188;5.712;2023-02-28T10:15:53;99608.69;;;8.07;44.52
71795;BME280;59641;45.188;5.712;2023-02-28T10:18:27;99610.31;;;8.08;44.44
71795;BME280;59641;45.188;5.712;2023-02-28T10:20:56;99617.34;;;8.09;44.44
71795;BME280;59641;45.188;5.712;2023-02-28T10:23:27;99610.31;;;8.08;44.62
71795;BME280;59641;45.188;5.712;2023-02-28T10:26:00;99607.06;;;8.06;44.69
71795;BME280;59641;45.188;5.712;2023-02-28T10:28:26;99603.53;;;8.05;44.48
71795;BME280;59641;45.188;5.712;2023-02-28T10:30:54;99606.59;;;8.02;44.29
71795;BME280;59641;45.188;5.712;2023-02-28T10:33:24;99610.50;;;8.00;44.42
71795;BME280;59641;45.188;5.712;2023-02-28T10:35:51;99615.66;;;8.01;44.47
71795;BME280;59641;45.188;5.712;2023-02-28T10:38:43;99612.75;;;7.96;44.47
71795;BME280;59641;45.188;5.712;2023-02-28T10:41:15;99609.63;;;7.93;44.51
71795;BME280;59641;45.188;5.712;2023-02-28T10:43:42;99614.56;;;7.89;44.38
71795;BME280;59641;45.188;5.712;2023-02-28T10:49:42;99624.63;;;7.87;44.61
71795;BME280;59641;45.188;5.712;2023-02-28T10:51:37;99618.63;;;7.85;44.61
71795;BME280;59641;45.188;5.712;2023-02-28T10:54:03;99621.94;;;7.87;44.63
71795;BME280;59641;45.188;5.712;2023-02-28T10:56:30;99616.19;;;7.90;44.67
71795;BME280;59641;45.188;5.712;2023-02-28T11:04:01;99624.09;;;8.05;44.87
71795;BME280;59641;45.188;5.712;2023-02-28T11:06:33;99613.63;;;8.10;44.65
71795;BME280;59641;45.188;5.712;2023-02-28T11:09:02;99612.22;;;8.14;44.72
71795;BME280;59641;45.188;5.712;2023-02-28T11:11:30;99602.97;;;8.17;44.52
71795;BME280;59641;45.188;5.712;2023-02-28T11:14:06;99604.84;;;8.16;44.57
71795;BME280;59641;45.188;5.712;2023-02-28T11:16:42;99602.78;;;8.18;44.48
71795;BME280;59641;45.188;5.712;2023-02-28T11:19:19;99598.09;;;8.20;44.50
71795;BME280;59641;45.188;5.712;2023-02-28T11:21:56;99594.38;;;8.21;44.35
71795;BME280;59641;45.188;5.712;2023-02-28T11:24:30;99589.44;;;8.25;44.50
71795;BME280;59641;45.188;5.712;2023-02-28T11:26:56;99589.06;;;8.28;44.30
71795;BME280;59641;45.188;5.712;2023-02-28T11:29:30;99588.84;;;8.29;44.21
71795;BME280;59641;45.188;5.712;2023-02-28T11:32:21;99582.69;;;8.29;44.32
71795;BME280;59641;45.188;5.712;2023-02-28T11:37:27;99563.97;;;8.29;44.09
71795;BME280;59641;45.188;5.712;2023-02-28T11:39:53;99567.44;;;8.29;44.20
71795;BME280;59641;45.188;5.712;2023-02-28T11:48:08;99554.59;;;8.40;44.15
71795;BME280;59641;45.188;5.712;2023-02-28T12:09:05;99544.31;;;8.50;44.00
71795;BME280;59641;45.188;5.712;2023-02-28T12:11:51;99544.53;;;8.55;43.96
71795;BME280;59641;45.188;5.712;2023-02-28T12:20:41;99537.31;;;8.56;43.88
71795;BME280;59641;45.188;5.712;2023-02-28T12:26:36;99539.19;;;8.55;43.75
71795;BME280;59641;45.188;5.712;2023-02-28T12:29:17;99537.13;;;8.57;43.57
71795;BME280;59641;45.188;5.712;2023-02-28T12:31:49;99533.66;;;8.57;43.61
71795;BME280;59641;45.188;5.712;2023-02-28T12:34:21;99538.78;;;8.51;43.50
71795;BME280;59641;45.188;5.712;2023-02-28T12:36:49;99534.44;;;8.50;43.49
71795;BME280;59641;45.188;5.712;2023-02-28T12:39:23;99540.81;;;8.49;43.45
71795;BME280;59641;45.188;5.712;2023-02-28T12:41:59;99534.84;;;8.47;43.54
71795;BME280;59641;45.188;5.712;2023-02-28T12:44:34;99532.59;;;8.44;43.56
71795;BME280;59641;45.188;5.712;2023-02-28T12:47:05;99531.56;;;8.45;43.69
71795;BME280;59641;45.188;5.712;2023-02-28T12:49:39;99519.00;;;8.46;43.77
71795;BME280;59641;45.188;5.712;2023-02-28T12:52:06;99517.56;;;8.50;43.65
71795;BME280;59641;45.188;5.712;2023-02-28T12:54:43;99508.31;;;8.52;43.36
71795;BME280;59641;45.188;5.712;2023-02-28T13:00:13;99504.41;;;8.55;43.55
71795;BME280;59641;45.188;5.712;2023-02-28T13:02:52;99492.47;;;8.58;43.58
71795;BME280;59641;45.188;5.712;2023-02-28T13:05:54;99496.81;;;8.59;43.43
71795;BME280;59641;45.188;5.712;2023-02-28T13:08:47;99492.91;;;8.61;43.51
71795;BME280;59641;45.188;5.712;2023-02-28T13:11:52;99489.00;;;8.64;43.44
71795;BME280;59641;45.188;5.712;2023-02-28T13:14:59;99488.78;;;8.65;43.50
71795;BME280;59641;45.188;5.712;2023-02-28T13:17:19;99482.19;;;8.68;43.62
71795;BME280;59641;45.188;5.712;2023-02-28T13:25:16;99467.19;;;8.80;43.49
71795;BME280;59641;45.188;5.712;2023-02-28T13:27:55;99469.66;;;8.82;43.43
71795;BME280;59641;45.188;5.712;2023-02-28T13:38:47;99473.78;;;8.84;43.34
71795;BME280;59641;45.188;5.712;2023-02-28T13:44:05;99480.16;;;8.83;43.55
71795;BME280;59641;45.188;5.712;2023-02-28T13:46:33;99474.00;;;8.83;43.11
71795;BME280;59641;45.188;5.712;2023-02-28T14:00:20;99480.16;;;8.77;43.08
71795;BME280;59641;45.188;5.712;2023-02-28T14:03:17;99474.81;;;8.77;43.29
71795;BME280;59641;45.188;5.712;2023-02-28T14:06:15;99477.47;;;8.77;43.46
71795;BME280;59641;45.188;5.712;2023-02-28T14:11:40;99469.25;;;8.78;43.31
71795;BME280;59641;45.188;5.712;2023-02-28T14:14:07;99472.53;;;8.80;43.28
71795;BME280;59641;45.188;5.712;2023-02-28T14:19:12;99461.44;;;8.83;43.36
71795;BME280;59641;45.188;5.712;2023-02-28T14:21:58;99461.44;;;8.83;43.26
71795;BME280;59641;45.188;5.712;2023-02-28T14:29:43;99465.97;;;8.83;43.24
71795;BME280;59641;45.188;5.712;2023-02-28T14:37:43;99470.91;;;8.79;43.26
71795;BME280;59641;45.188;5.712;2023-02-28T14:42:48;99474.19;;;8.74;43.29
71795;BME280;59641;45.188;5.712;2023-02-28T14:45:20;99475.22;;;8.73;43.21
71795;BME280;59641;45.188;5.712;2023-02-28T14:47:47;99479.34;;;8.69;43.23
71795;BME280;59641;45.188;5.712;2023-02-28T14:50:19;99481.38;;;8.67;43.40
71795;BME280;59641;45.188;5.712;2023-02-28T14:52:46;99476.84;;;8.68;43.47
71795;BME280;59641;45.188;5.712;2023-02-28T14:55:18;99466.56;;;8.65;43.20
71795;BME280;59641;45.188;5.712;2023-02-28T14:57:53;99474.78;;;8.63;43.28
71795;BME280;59641;45.188;5.712;2023-02-28T15:02:49;99471.91;;;8.58;43.33
71795;BME280;59641;45.188;5.712;2023-02-28T15:07:43;99471.69;;;8.53;43.44
71795;BME280;59641;45.188;5.712;2023-02-28T15:12:36;99479.09;;;8.51;43.44
71795;BME280;59641;45.188;5.712;2023-02-28T15:15:02;99484.22;;;8.46;43.54
71795;BME280;59641;45.188;5.712;2023-02-28T15:17:28;99492.25;;;8.46;43.69
71795;BME280;59641;45.188;5.712;2023-02-28T15:19:54;99481.97;;;8.43;43.59
71795;BME280;59641;45.188;5.712;2023-02-28T15:22:31;99488.56;;;8.47;43.67
71795;BME280;59641;45.188;5.712;2023-02-28T15:24:59;99479.69;;;8.46;43.76
71795;BME280;59641;45.188;5.712;2023-02-28T15:27:27;99482.81;;;8.50;43.83
71795;BME280;59641;45.188;5.712;2023-02-28T15:29:57;99485.47;;;8.50;43.69
71795;BME280;59641;45.188;5.712;2023-02-28T15:32:30;99486.31;;;8.50;43.89
71795;BME280;59641;45.188;5.712;2023-02-28T15:34:57;99480.31;;;8.48;43.66
71795;BME280;59641;45.188;5.712;2023-02-28T15:40:24;99476.22;;;8.46;43.78
71795;BME280;59641;45.188;5.712;2023-02-28T15:46:07;99470.81;;;8.39;43.93
71795;BME280;59641;45.188;5.712;2023-02-28T15:53:37;99473.28;;;8.34;43.86
71795;BME280;59641;45.188;5.712;2023-02-28T15:56:12;99480.66;;;8.32;43.97
71795;BME280;59641;45.188;5.712;2023-02-28T15:58:43;99474.50;;;8.31;43.95